sensor_id;sensor_type;location;lat;lon;timestamp;temperature;humidity
20546;DHT22;10431;50.228;9.112;2023-04-06T00:02:17;19.80;77.70
20546;DHT22;10431;50.228;9.112;2023-04-06T00:04:44;19.70;77.60
20546;DHT22;10431;50.228;9.112;2023-04-06T00:07:10;19.70;77.60
20546;DHT22;10431;50.228;9.112;2023-04-06T00:09:36;19.80;77.60
20546;DHT22;10431;50.228;9.112;2023-04-06T00:12:02;19.70;77.60
20546;DHT22;10431;50.228;9.112;2023-04-06T00:14:29;19.80;77.70
20546;DHT22;10431;50.228;9.112;2023-04-06T00:16:55;19.70;77.60
20546;DHT22;10431;50.228;9.112;2023-04-06T00:19:21;19.70;77.60
20546;DHT22;10431;50.228;9.112;2023-04-06T00:21:47;19.70;77.60
20546;DHT22;10431;50.228;9.112;2023-04-06T00:24:14;19.70;77.60
20546;DHT22;10431;50.228;9.112;2023-04-06T00:26:40;19.80;77.60
20546;DHT22;10431;50.228;9.112;2023-04-06T00:29:07;19.70;77.60
20546;DHT22;10431;50.228;9.112;2023-04-06T00:31:33;19.70;77.60
20546;DHT22;10431;50.228;9.112;2023-04-06T00:33:59;19.70;77.60
20546;DHT22;10431;50.228;9.112;2023-04-06T00:36:26;19.70;77.60
20546;DHT22;10431;50.228;9.112;2023-04-06T00:38:52;19.70;77.60
20546;DHT22;10431;50.228;9.112;2023-04-06T00:41:18;19.70;77.60
20546;DHT22;10431;50.228;9.112;2023-04-06T00:43:46;19.70;77.60
20546;DHT22;10431;50.228;9.112;2023-04-06T00:46:12;19.70;77.60
20546;DHT22;10431;50.228;9.112;2023-04-06T00:48:39;19.70;77.60
20546;DHT22;10431;50.228;9.112;2023-04-06T00:51:06;19.70;77.70
20546;DHT22;10431;50.228;9.112;2023-04-06T00:53:32;19.70;77.60
20546;DHT22;10431;50.228;9.112;2023-04-06T00:56:01;19.70;77.70
20546;DHT22;10431;50.228;9.112;2023-04-06T00:58:27;19.70;77.60
20546;DHT22;10431;50.228;9.112;2023-04-06T01:01:01;19.70;78.50
20546;DHT22;10431;50.228;9.112;2023-04-06T01:03:28;19.70;77.70
20546;DHT22;10431;50.228;9.112;2023-04-06T01:05:54;19.70;77.60
20546;DHT22;10431;50.228;9.112;2023-04-06T01:08:27;19.70;77.70
20546;DHT22;10431;50.228;9.112;2023-04-06T01:11:06;19.70;77.60
20546;DHT22;10431;50.228;9.112;2023-04-06T01:13:33;19.70;77.60
20546;DHT22;10431;50.228;9.112;2023-04-06T01:16:02;19.70;77.60
20546;DHT22;10431;50.228;9.112;2023-04-06T01:18:47;19.70;77.60
20546;DHT22;10431;50.228;9.112;2023-04-06T01:21:20;19.70;77.60
20546;DHT22;10431;50.228;9.112;2023-04-06T01:24:14;19.70;77.60
20546;DHT22;10431;50.228;9.112;2023-04-06T01:27:04;19.70;77.60
20546;DHT22;10431;50.228;9.112;2023-04-06T01:29:53;19.70;77.60
20546;DHT22;10431;50.228;9.112;2023-04-06T01:32:43;19.70;77.60
20546;DHT22;10431;50.228;9.112;2023-04-06T01:35:12;19.70;77.60
20546;DHT22;10431;50.228;9.112;2023-04-06T01:37:46;19.70;77.70
20546;DHT22;10431;50.228;9.112;2023-04-06T01:40:19;19.70;77.70
20546;DHT22;10431;50.228;9.112;2023-04-06T01:42:49;19.70;77.70
20546;DHT22;10431;50.228;9.112;2023-04-06T01:45:22;19.70;77.70
20546;DHT22;10431;50.228;9.112;2023-04-06T01:47:50;19.70;77.70
20546;DHT22;10431;50.228;9.112;2023-04-06T01:50:16;19.70;77.70
20546;DHT22;10431;50.228;9.112;2023-04-06T01:52:45;19.70;77.70
20546;DHT22;10431;50.228;9.112;2023-04-06T01:55:12;19.70;77.70
20546;DHT22;10431;50.228;9.112;2023-04-06T01:57:57;19.70;77.80
20546;DHT22;10431;50.228;9.112;2023-04-06T02:00:33;19.70;77.70
20546;DHT22;10431;50.228;9.112;2023-04-06T02:03:00;19.70;77.80
20546;DHT22;10431;50.228;9.112;2023-04-06T02:05:30;19.60;77.70
20546;DHT22;10431;50.228;9.112;2023-04-06T02:07:56;19.60;77.80
20546;DHT22;10431;50.228;9.112;2023-04-06T02:10:31;19.70;77.90
20546;DHT22;10431;50.228;9.112;2023-04-06T02:13:02;19.70;77.80
20546;DHT22;10431;50.228;9.112;2023-04-06T02:15:28;19.60;77.70
20546;DHT22;10431;50.228;9.112;2023-04-06T02:17:54;19.70;77.80
20546;DHT22;10431;50.228;9.112;2023-04-06T02:20:21;19.60;77.70
20546;DHT22;10431;50.228;9.112;2023-04-06T02:22:47;19.60;77.70
20546;DHT22;10431;50.228;9.112;2023-04-06T02:25:13;19.60;77.80
20546;DHT22;10431;50.228;9.112;2023-04-06T02:27:39;19.60;77.70
20546;DHT22;10431;50.228;9.112;2023-04-06T02:30:06;19.70;77.80
20546;DHT22;10431;50.228;9.112;2023-04-06T02:32:32;19.60;77.70
20546;DHT22;10431;50.228;9.112;2023-04-06T02:34:59;19.60;77.70
20546;DHT22;10431;50.228;9.112;2023-04-06T02:37:26;19.60;77.70
20546;DHT22;10431;50.228;9.112;2023-04-06T02:39:53;19.60;77.70
20546;DHT22;10431;50.228;9.112;2023-04-06T02:42:19;19.60;77.80
20546;DHT22;10431;50.228;9.112;2023-04-06T02:44:48;19.60;77.70
20546;DHT22;10431;50.228;9.112;2023-04-06T02:47:14;19.60;77.70
20546;DHT22;10431;50.228;9.112;2023-04-06T02:49:45;19.70;77.80
20546;DHT22;10431;50.228;9.112;2023-04-06T02:52:12;19.60;77.70
20546;DHT22;10431;50.228;9.112;2023-04-06T02:54:38;19.60;77.70
20546;DHT22;10431;50.228;9.112;2023-04-06T02:57:04;19.60;77.70
20546;DHT22;10431;50.228;9.112;2023-04-06T02:59:42;19.60;77.80
20546;DHT22;10431;50.228;9.112;2023-04-06T03:02:14;19.60;77.70
20546;DHT22;10431;50.228;9.112;2023-04-06T03:04:42;19.60;77.80
20546;DHT22;10431;50.228;9.112;2023-04-06T03:07:18;19.60;77.70
20546;DHT22;10431;50.228;9.112;2023-04-06T03:09:44;19.60;77.70
20546;DHT22;10431;50.228;9.112;2023-04-06T03:12:10;19.60;77.70
20546;DHT22;10431;50.228;9.112;2023-04-06T03:14:56;19.60;77.70
20546;DHT22;10431;50.228;9.112;2023-04-06T03:17:23;19.60;77.80
20546;DHT22;10431;50.228;9.112;2023-04-06T03:19:49;19.60;77.70
20546;DHT22;10431;50.228;9.112;2023-04-06T03:22:16;19.60;77.70
20546;DHT22;10431;50.228;9.112;2023-04-06T03:24:42;19.60;77.80
20546;DHT22;10431;50.228;9.112;2023-04-06T03:27:09;19.60;77.80
20546;DHT22;10431;50.228;9.112;2023-04-06T03:29:35;19.60;77.80
20546;DHT22;10431;50.228;9.112;2023-04-06T03:32:02;19.60;77.80
20546;DHT22;10431;50.228;9.112;2023-04-06T03:34:40;19.60;77.80
20546;DHT22;10431;50.228;9.112;2023-04-06T03:37:08;19.60;77.80
20546;DHT22;10431;50.228;9.112;2023-04-06T03:39:35;19.60;77.90
20546;DHT22;10431;50.228;9.112;2023-04-06T03:42:03;19.60;77.90
20546;DHT22;10431;50.228;9.112;2023-04-06T03:44:35;19.60;77.90
20546;DHT22;10431;50.228;9.112;2023-04-06T03:47:01;19.60;77.90
20546;DHT22;10431;50.228;9.112;2023-04-06T03:49:28;19.60;77.90
20546;DHT22;10431;50.228;9.112;2023-04-06T03:51:56;19.60;77.90
20546;DHT22;10431;50.228;9.112;2023-04-06T03:54:22;19.60;77.90
20546;DHT22;10431;50.228;9.112;2023-04-06T03:56:48;19.60;77.90
20546;DHT22;10431;50.228;9.112;2023-04-06T03:59:15;19.60;77.90
20546;DHT22;10431;50.228;9.112;2023-04-06T04:01:41;19.60;77.90
20546;DHT22;10431;50.228;9.112;2023-04-06T04:04:07;19.60;77.90
20546;DHT22;10431;50.228;9.112;2023-04-06T04:06:33;19.60;77.90
20546;DHT22;10431;50.228;9.112;2023-04-06T04:09:02;19.60;77.90
20546;DHT22;10431;50.228;9.112;2023-04-06T04:11:29;19.60;77.90
20546;DHT22;10431;50.228;9.112;2023-04-06T04:13:57;19.60;77.90
20546;DHT22;10431;50.228;9.112;2023-04-06T04:16:23;19.60;77.90
20546;DHT22;10431;50.228;9.112;2023-04-06T04:18:50;19.60;77.90
20546;DHT22;10431;50.228;9.112;2023-04-06T04:21:16;19.60;77.90
20546;DHT22;10431;50.228;9.112;2023-04-06T04:23:42;19.60;77.90
20546;DHT22;10431;50.228;9.112;2023-04-06T04:26:09;19.60;77.90
20546;DHT22;10431;50.228;9.112;2023-04-06T04:28:35;19.60;77.90
20546;DHT22;10431;50.228;9.112;2023-04-06T04:31:01;19.60;77.90
20546;DHT22;10431;50.228;9.112;2023-04-06T04:33:30;19.50;77.80
20546;DHT22;10431;50.228;9.112;2023-04-06T04:35:58;19.60;77.90
20546;DHT22;10431;50.228;9.112;2023-04-06T04:38:28;19.60;77.90
20546;DHT22;10431;50.228;9.112;2023-04-06T04:40:56;19.60;77.90
20546;DHT22;10431;50.228;9.112;2023-04-06T04:43:22;19.60;77.90
20546;DHT22;10431;50.228;9.112;2023-04-06T04:45:49;19.60;77.90
20546;DHT22;10431;50.228;9.112;2023-04-06T04:48:37;19.60;77.90
20546;DHT22;10431;50.228;9.112;2023-04-06T04:51:05;19.60;77.90
20546;DHT22;10431;50.228;9.112;2023-04-06T04:53:47;19.60;77.90
20546;DHT22;10431;50.228;9.112;2023-04-06T04:56:21;19.70;77.80
20546;DHT22;10431;50.228;9.112;2023-04-06T04:58:52;19.70;77.70
20546;DHT22;10431;50.228;9.112;2023-04-06T05:01:19;19.70;77.60
20546;DHT22;10431;50.228;9.112;2023-04-06T05:03:46;19.70;77.60
20546;DHT22;10431;50.228;9.112;2023-04-06T05:06:14;19.70;77.60
20546;DHT22;10431;50.228;9.112;2023-04-06T05:08:42;19.70;77.60
20546;DHT22;10431;50.228;9.112;2023-04-06T05:11:09;19.70;78.30
20546;DHT22;10431;50.228;9.112;2023-04-06T05:13:41;19.00;63.70
20546;DHT22;10431;50.228;9.112;2023-04-06T05:16:12;18.00;59.90
20546;DHT22;10431;50.228;9.112;2023-04-06T05:18:39;17.30;58.20
20546;DHT22;10431;50.228;9.112;2023-04-06T05:21:06;17.20;58.80
20546;DHT22;10431;50.228;9.112;2023-04-06T05:23:41;17.80;61.80
20546;DHT22;10431;50.228;9.112;2023-04-06T05:26:07;18.30;62.20
20546;DHT22;10431;50.228;9.112;2023-04-06T05:28:34;18.80;62.70
20546;DHT22;10431;50.228;9.112;2023-04-06T05:31:01;19.10;62.90
20546;DHT22;10431;50.228;9.112;2023-04-06T05:33:34;19.40;64.00
20546;DHT22;10431;50.228;9.112;2023-04-06T05:36:09;19.70;64.60
20546;DHT22;10431;50.228;9.112;2023-04-06T05:38:40;19.90;64.60
20546;DHT22;10431;50.228;9.112;2023-04-06T05:41:17;20.10;64.90
20546;DHT22;10431;50.228;9.112;2023-04-06T05:43:43;20.20;65.30
20546;DHT22;10431;50.228;9.112;2023-04-06T05:46:10;20.30;65.60
20546;DHT22;10431;50.228;9.112;2023-04-06T05:48:36;20.40;66.00
20546;DHT22;10431;50.228;9.112;2023-04-06T05:51:03;20.50;66.60
20546;DHT22;10431;50.228;9.112;2023-04-06T05:53:39;20.50;66.90
20546;DHT22;10431;50.228;9.112;2023-04-06T05:56:06;20.50;67.30
20546;DHT22;10431;50.228;9.112;2023-04-06T05:58:32;20.60;67.70
20546;DHT22;10431;50.228;9.112;2023-04-06T06:01:00;20.60;68.20
20546;DHT22;10431;50.228;9.112;2023-04-06T06:03:33;20.60;68.60
20546;DHT22;10431;50.228;9.112;2023-04-06T06:06:00;20.60;69.00
20546;DHT22;10431;50.228;9.112;2023-04-06T06:08:33;20.50;69.20
20546;DHT22;10431;50.228;9.112;2023-04-06T06:11:02;20.50;69.20
20546;DHT22;10431;50.228;9.112;2023-04-06T06:13:30;20.50;69.30
20546;DHT22;10431;50.228;9.112;2023-04-06T06:15:57;20.30;67.10
20546;DHT22;10431;50.228;9.112;2023-04-06T06:18:25;20.20;67.10
20546;DHT22;10431;50.228;9.112;2023-04-06T06:20:53;20.10;66.10
20546;DHT22;10431;50.228;9.112;2023-04-06T06:23:20;20.00;66.50
20546;DHT22;10431;50.228;9.112;2023-04-06T06:25:47;19.30;58.00
20546;DHT22;10431;50.228;9.112;2023-04-06T06:28:13;17.80;55.80
20546;DHT22;10431;50.228;9.112;2023-04-06T06:30:40;16.80;56.70
20546;DHT22;10431;50.228;9.112;2023-04-06T06:33:06;16.70;58.70
20546;DHT22;10431;50.228;9.112;2023-04-06T06:35:32;17.50;60.90
20546;DHT22;10431;50.228;9.112;2023-04-06T06:38:02;18.30;59.70
20546;DHT22;10431;50.228;9.112;2023-04-06T06:40:28;18.90;59.30
20546;DHT22;10431;50.228;9.112;2023-04-06T06:42:55;19.60;59.00
20546;DHT22;10431;50.228;9.112;2023-04-06T06:45:34;20.00;59.10
20546;DHT22;10431;50.228;9.112;2023-04-06T06:48:00;20.50;59.10
20546;DHT22;10431;50.228;9.112;2023-04-06T06:50:27;20.70;59.50
20546;DHT22;10431;50.228;9.112;2023-04-06T06:52:53;20.90;59.80
20546;DHT22;10431;50.228;9.112;2023-04-06T06:55:19;21.10;60.10
20546;DHT22;10431;50.228;9.112;2023-04-06T06:57:46;21.20;60.50
20546;DHT22;10431;50.228;9.112;2023-04-06T07:00:13;21.30;60.90
20546;DHT22;10431;50.228;9.112;2023-04-06T07:02:41;21.30;61.60
20546;DHT22;10431;50.228;9.112;2023-04-06T07:05:08;21.50;62.10
20546;DHT22;10431;50.228;9.112;2023-04-06T07:07:34;21.50;62.30
20546;DHT22;10431;50.228;9.112;2023-04-06T07:10:01;21.50;62.60
20546;DHT22;10431;50.228;9.112;2023-04-06T07:12:27;21.40;63.00
20546;DHT22;10431;50.228;9.112;2023-04-06T07:14:53;21.40;63.40
20546;DHT22;10431;50.228;9.112;2023-04-06T07:17:19;21.30;63.80
20546;DHT22;10431;50.228;9.112;2023-04-06T07:19:46;21.20;64.20
20546;DHT22;10431;50.228;9.112;2023-04-06T07:22:12;21.20;64.60
20546;DHT22;10431;50.228;9.112;2023-04-06T07:24:38;21.10;65.00
20546;DHT22;10431;50.228;9.112;2023-04-06T07:27:05;21.10;65.30
20546;DHT22;10431;50.228;9.112;2023-04-06T07:29:31;21.00;65.50
20546;DHT22;10431;50.228;9.112;2023-04-06T07:31:58;20.80;65.90
20546;DHT22;10431;50.228;9.112;2023-04-06T07:34:25;20.70;66.20
20546;DHT22;10431;50.228;9.112;2023-04-06T07:36:52;20.70;66.60
20546;DHT22;10431;50.228;9.112;2023-04-06T07:39:20;20.60;67.10
20546;DHT22;10431;50.228;9.112;2023-04-06T07:41:47;20.60;67.50
20546;DHT22;10431;50.228;9.112;2023-04-06T07:44:13;20.50;67.90
20546;DHT22;10431;50.228;9.112;2023-04-06T07:46:39;20.50;68.20
20546;DHT22;10431;50.228;9.112;2023-04-06T07:49:06;20.40;68.50
20546;DHT22;10431;50.228;9.112;2023-04-06T07:51:37;20.40;68.80
20546;DHT22;10431;50.228;9.112;2023-04-06T07:54:03;20.40;69.20
20546;DHT22;10431;50.228;9.112;2023-04-06T07:56:29;20.30;69.40
20546;DHT22;10431;50.228;9.112;2023-04-06T07:58:56;20.30;69.80
20546;DHT22;10431;50.228;9.112;2023-04-06T08:01:23;20.30;70.00
20546;DHT22;10431;50.228;9.112;2023-04-06T08:03:49;20.00;67.60
20546;DHT22;10431;50.228;9.112;2023-04-06T08:06:16;20.00;68.70
20546;DHT22;10431;50.228;9.112;2023-04-06T08:08:43;20.00;68.70
20546;DHT22;10431;50.228;9.112;2023-04-06T08:11:09;20.00;69.00
20546;DHT22;10431;50.228;9.112;2023-04-06T08:13:36;20.00;69.50
20546;DHT22;10431;50.228;9.112;2023-04-06T08:16:02;20.00;70.30
20546;DHT22;10431;50.228;9.112;2023-04-06T08:18:28;20.10;70.60
20546;DHT22;10431;50.228;9.112;2023-04-06T08:20:56;20.10;70.70
20546;DHT22;10431;50.228;9.112;2023-04-06T08:23:22;20.10;71.90
20546;DHT22;10431;50.228;9.112;2023-04-06T08:25:49;20.10;72.00
20546;DHT22;10431;50.228;9.112;2023-04-06T08:28:15;20.20;71.70
20546;DHT22;10431;50.228;9.112;2023-04-06T08:30:42;20.20;72.00
20546;DHT22;10431;50.228;9.112;2023-04-06T08:33:09;20.20;72.20
20546;DHT22;10431;50.228;9.112;2023-04-06T08:35:36;20.20;72.20
20546;DHT22;10431;50.228;9.112;2023-04-06T08:38:02;20.20;72.40
20546;DHT22;10431;50.228;9.112;2023-04-06T08:40:28;20.20;72.80
20546;DHT22;10431;50.228;9.112;2023-04-06T08:42:56;20.20;73.00
20546;DHT22;10431;50.228;9.112;2023-04-06T08:45:25;20.20;73.30
20546;DHT22;10431;50.228;9.112;2023-04-06T08:47:51;20.10;73.30
20546;DHT22;10431;50.228;9.112;2023-04-06T08:50:21;20.10;73.40
20546;DHT22;10431;50.228;9.112;2023-04-06T08:52:48;20.10;73.70
20546;DHT22;10431;50.228;9.112;2023-04-06T08:55:15;20.10;73.90
20546;DHT22;10431;50.228;9.112;2023-04-06T08:57:42;20.10;74.30
20546;DHT22;10431;50.228;9.112;2023-04-06T09:00:10;20.00;74.40
20546;DHT22;10431;50.228;9.112;2023-04-06T09:02:43;19.90;74.70
20546;DHT22;10431;50.228;9.112;2023-04-06T09:05:09;19.90;74.80
20546;DHT22;10431;50.228;9.112;2023-04-06T09:07:36;20.00;75.00
20546;DHT22;10431;50.228;9.112;2023-04-06T09:10:04;19.80;68.20
20546;DHT22;10431;50.228;9.112;2023-04-06T09:12:31;19.50;69.00
20546;DHT22;10431;50.228;9.112;2023-04-06T09:14:59;19.60;69.80
20546;DHT22;10431;50.228;9.112;2023-04-06T09:17:29;19.60;70.40
20546;DHT22;10431;50.228;9.112;2023-04-06T09:20:02;19.60;71.30
20546;DHT22;10431;50.228;9.112;2023-04-06T09:22:36;19.60;71.80
20546;DHT22;10431;50.228;9.112;2023-04-06T09:25:03;19.60;72.10
20546;DHT22;10431;50.228;9.112;2023-04-06T09:27:34;19.70;72.70
20546;DHT22;10431;50.228;9.112;2023-04-06T09:30:10;19.70;73.20
20546;DHT22;10431;50.228;9.112;2023-04-06T09:32:53;19.70;73.40
20546;DHT22;10431;50.228;9.112;2023-04-06T09:35:19;19.60;73.70
20546;DHT22;10431;50.228;9.112;2023-04-06T09:37:50;19.70;73.50
20546;DHT22;10431;50.228;9.112;2023-04-06T09:40:18;19.70;73.70
20546;DHT22;10431;50.228;9.112;2023-04-06T09:42:46;19.70;73.80
20546;DHT22;10431;50.228;9.112;2023-04-06T09:45:13;19.70;73.80
20546;DHT22;10431;50.228;9.112;2023-04-06T09:47:42;19.50;66.60
20546;DHT22;10431;50.228;9.112;2023-04-06T09:50:11;19.40;64.90
20546;DHT22;10431;50.228;9.112;2023-04-06T09:55:08;19.10;63.20
20546;DHT22;10431;50.228;9.112;2023-04-06T09:57:42;19.00;62.40
20546;DHT22;10431;50.228;9.112;2023-04-06T10:00:13;19.00;62.00
20546;DHT22;10431;50.228;9.112;2023-04-06T10:03:11;19.00;61.80
20546;DHT22;10431;50.228;9.112;2023-04-06T10:05:46;19.00;62.00
20546;DHT22;10431;50.228;9.112;2023-04-06T10:08:13;19.00;60.50
20546;DHT22;10431;50.228;9.112;2023-04-06T10:10:40;19.00;60.10
20546;DHT22;10431;50.228;9.112;2023-04-06T10:13:07;19.00;60.70
20546;DHT22;10431;50.228;9.112;2023-04-06T10:15:38;19.20;62.00
20546;DHT22;10431;50.228;9.112;2023-04-06T10:18:06;19.40;62.10
20546;DHT22;10431;50.228;9.112;2023-04-06T10:23:26;19.70;63.20
20546;DHT22;10431;50.228;9.112;2023-04-06T10:25:57;19.90;64.90
20546;DHT22;10431;50.228;9.112;2023-04-06T10:28:24;19.90;65.80
20546;DHT22;10431;50.228;9.112;2023-04-06T10:30:57;20.00;66.30
20546;DHT22;10431;50.228;9.112;2023-04-06T10:33:24;20.00;66.80
20546;DHT22;10431;50.228;9.112;2023-04-06T10:35:50;20.00;67.30
20546;DHT22;10431;50.228;9.112;2023-04-06T10:38:17;20.10;67.80
20546;DHT22;10431;50.228;9.112;2023-04-06T10:40:48;20.00;68.10
20546;DHT22;10431;50.228;9.112;2023-04-06T10:43:19;20.10;68.60
20546;DHT22;10431;50.228;9.112;2023-04-06T10:45:59;20.00;68.80
20546;DHT22;10431;50.228;9.112;2023-04-06T10:48:39;20.10;69.20
20546;DHT22;10431;50.228;9.112;2023-04-06T10:51:13;20.00;69.50
20546;DHT22;10431;50.228;9.112;2023-04-06T10:53:42;20.00;69.80
20546;DHT22;10431;50.228;9.112;2023-04-06T10:56:14;20.00;70.10
20546;DHT22;10431;50.228;9.112;2023-04-06T10:58:45;19.90;71.30
20546;DHT22;10431;50.228;9.112;2023-04-06T11:01:12;20.00;71.40
20546;DHT22;10431;50.228;9.112;2023-04-06T11:03:54;19.90;71.30
20546;DHT22;10431;50.228;9.112;2023-04-06T11:06:28;19.90;71.60
20546;DHT22;10431;50.228;9.112;2023-04-06T11:08:57;19.90;71.80
20546;DHT22;10431;50.228;9.112;2023-04-06T11:11:25;19.90;72.20
20546;DHT22;10431;50.228;9.112;2023-04-06T11:13:53;19.80;72.20
20546;DHT22;10431;50.228;9.112;2023-04-06T11:16:24;19.80;72.70
20546;DHT22;10431;50.228;9.112;2023-04-06T11:18:59;19.80;72.80
20546;DHT22;10431;50.228;9.112;2023-04-06T11:24:24;19.50;70.40
20546;DHT22;10431;50.228;9.112;2023-04-06T11:29:24;19.30;68.80
20546;DHT22;10431;50.228;9.112;2023-04-06T11:31:52;19.40;68.90
20546;DHT22;10431;50.228;9.112;2023-04-06T11:34:20;19.40;68.80
20546;DHT22;10431;50.228;9.112;2023-04-06T11:36:57;19.50;69.30
20546;DHT22;10431;50.228;9.112;2023-04-06T11:39:25;19.50;69.60
20546;DHT22;10431;50.228;9.112;2023-04-06T11:41:54;19.50;70.10
20546;DHT22;10431;50.228;9.112;2023-04-06T11:44:34;19.50;70.30
20546;DHT22;10431;50.228;9.112;2023-04-06T11:47:03;19.50;70.50
20546;DHT22;10431;50.228;9.112;2023-04-06T11:49:30;19.50;70.60
20546;DHT22;10431;50.228;9.112;2023-04-06T11:51:58;19.50;70.70
20546;DHT22;10431;50.228;9.112;2023-04-06T11:54:31;19.50;70.70
20546;DHT22;10431;50.228;9.112;2023-04-06T11:56:57;19.50;70.80
20546;DHT22;10431;50.228;9.112;2023-04-06T11:59:23;19.50;71.10
20546;DHT22;10431;50.228;9.112;2023-04-06T12:01:49;19.40;70.60
20546;DHT22;10431;50.228;9.112;2023-04-06T12:04:16;19.30;67.00
20546;DHT22;10431;50.228;9.112;2023-04-06T12:06:43;19.20;66.40
20546;DHT22;10431;50.228;9.112;2023-04-06T12:09:09;19.10;65.90
20546;DHT22;10431;50.228;9.112;2023-04-06T12:11:36;19.10;65.80
20546;DHT22;10431;50.228;9.112;2023-04-06T12:14:03;19.20;64.60
20546;DHT22;10431;50.228;9.112;2023-04-06T12:16:31;19.20;64.00
20546;DHT22;10431;50.228;9.112;2023-04-06T12:18:57;19.10;62.80
20546;DHT22;10431;50.228;9.112;2023-04-06T12:21:23;19.10;62.30
20546;DHT22;10431;50.228;9.112;2023-04-06T12:23:49;19.10;61.10
20546;DHT22;10431;50.228;9.112;2023-04-06T12:26:16;19.20;60.80
20546;DHT22;10431;50.228;9.112;2023-04-06T12:28:42;19.10;61.70
20546;DHT22;10431;50.228;9.112;2023-04-06T12:31:21;19.10;64.00
20546;DHT22;10431;50.228;9.112;2023-04-06T12:33:51;19.10;64.40
20546;DHT22;10431;50.228;9.112;2023-04-06T12:36:19;19.10;64.00
20546;DHT22;10431;50.228;9.112;2023-04-06T12:38:48;19.10;63.30
20546;DHT22;10431;50.228;9.112;2023-04-06T12:41:15;19.10;62.40
20546;DHT22;10431;50.228;9.112;2023-04-06T12:43:43;19.10;62.00
20546;DHT22;10431;50.228;9.112;2023-04-06T12:46:09;19.20;62.70
20546;DHT22;10431;50.228;9.112;2023-04-06T12:48:36;19.20;61.80
20546;DHT22;10431;50.228;9.112;2023-04-06T12:51:05;19.20;62.20
20546;DHT22;10431;50.228;9.112;2023-04-06T12:53:33;19.20;61.60
20546;DHT22;10431;50.228;9.112;2023-04-06T12:55:59;19.10;60.70
20546;DHT22;10431;50.228;9.112;2023-04-06T12:58:26;19.00;59.90
20546;DHT22;10431;50.228;9.112;2023-04-06T13:00:54;19.10;60.20
20546;DHT22;10431;50.228;9.112;2023-04-06T13:03:22;19.00;60.10
20546;DHT22;10431;50.228;9.112;2023-04-06T13:05:51;19.00;59.60
20546;DHT22;10431;50.228;9.112;2023-04-06T13:08:20;19.00;59.70
20546;DHT22;10431;50.228;9.112;2023-04-06T13:10:51;19.00;62.00
20546;DHT22;10431;50.228;9.112;2023-04-06T13:13:25;19.10;62.10
20546;DHT22;10431;50.228;9.112;2023-04-06T13:15:53;19.20;61.80
20546;DHT22;10431;50.228;9.112;2023-04-06T13:18:19;19.20;61.40
20546;DHT22;10431;50.228;9.112;2023-04-06T13:20:49;19.20;60.90
20546;DHT22;10431;50.228;9.112;2023-04-06T13:23:15;19.10;61.40
20546;DHT22;10431;50.228;9.112;2023-04-06T13:25:42;19.10;61.20
20546;DHT22;10431;50.228;9.112;2023-04-06T13:28:09;19.00;60.00
20546;DHT22;10431;50.228;9.112;2023-04-06T13:30:36;19.00;59.80
20546;DHT22;10431;50.228;9.112;2023-04-06T13:33:02;18.90;59.70
20546;DHT22;10431;50.228;9.112;2023-04-06T13:35:28;18.90;59.30
20546;DHT22;10431;50.228;9.112;2023-04-06T13:37:54;18.90;59.20
20546;DHT22;10431;50.228;9.112;2023-04-06T13:40:21;18.90;59.50
20546;DHT22;10431;50.228;9.112;2023-04-06T13:42:47;18.90;59.00
20546;DHT22;10431;50.228;9.112;2023-04-06T13:45:14;18.90;58.70
20546;DHT22;10431;50.228;9.112;2023-04-06T13:47:40;18.90;58.50
20546;DHT22;10431;50.228;9.112;2023-04-06T13:50:07;18.80;58.20
20546;DHT22;10431;50.228;9.112;2023-04-06T13:52:34;18.90;58.90
20546;DHT22;10431;50.228;9.112;2023-04-06T13:55:02;18.90;58.90
20546;DHT22;10431;50.228;9.112;2023-04-06T13:57:28;18.90;58.60
20546;DHT22;10431;50.228;9.112;2023-04-06T13:59:55;18.90;59.00
20546;DHT22;10431;50.228;9.112;2023-04-06T14:02:22;18.90;59.30
20546;DHT22;10431;50.228;9.112;2023-04-06T14:04:53;18.90;59.50
20546;DHT22;10431;50.228;9.112;2023-04-06T14:07:21;18.70;57.20
20546;DHT22;10431;50.228;9.112;2023-04-06T14:09:47;18.40;55.60
20546;DHT22;10431;50.228;9.112;2023-04-06T14:12:13;18.40;56.50
20546;DHT22;10431;50.228;9.112;2023-04-06T14:14:40;18.30;56.30
20546;DHT22;10431;50.228;9.112;2023-04-06T14:17:06;18.40;56.40
20546;DHT22;10431;50.228;9.112;2023-04-06T14:19:32;18.40;55.70
20546;DHT22;10431;50.228;9.112;2023-04-06T14:21:59;18.30;55.10
20546;DHT22;10431;50.228;9.112;2023-04-06T14:24:26;18.30;55.20
20546;DHT22;10431;50.228;9.112;2023-04-06T14:26:52;18.40;55.40
20546;DHT22;10431;50.228;9.112;2023-04-06T14:29:18;18.40;55.50
20546;DHT22;10431;50.228;9.112;2023-04-06T14:31:48;18.40;55.70
20546;DHT22;10431;50.228;9.112;2023-04-06T14:34:14;18.50;56.00
20546;DHT22;10431;50.228;9.112;2023-04-06T14:36:41;18.30;55.30
20546;DHT22;10431;50.228;9.112;2023-04-06T14:39:08;18.30;54.80
20546;DHT22;10431;50.228;9.112;2023-04-06T14:41:34;18.20;55.00
20546;DHT22;10431;50.228;9.112;2023-04-06T14:44:01;18.20;55.30
20546;DHT22;10431;50.228;9.112;2023-04-06T14:46:27;18.30;55.70
20546;DHT22;10431;50.228;9.112;2023-04-06T14:48:57;18.20;55.40
20546;DHT22;10431;50.228;9.112;2023-04-06T14:51:26;18.30;55.80
20546;DHT22;10431;50.228;9.112;2023-04-06T14:53:53;18.50;57.60
20546;DHT22;10431;50.228;9.112;2023-04-06T14:56:23;18.50;54.80
20546;DHT22;10431;50.228;9.112;2023-04-06T14:58:50;18.30;54.90
20546;DHT22;10431;50.228;9.112;2023-04-06T15:01:18;18.40;55.90
20546;DHT22;10431;50.228;9.112;2023-04-06T15:03:44;18.60;57.30
20546;DHT22;10431;50.228;9.112;2023-04-06T15:06:15;18.60;56.30
20546;DHT22;10431;50.228;9.112;2023-04-06T15:08:44;18.70;56.60
20546;DHT22;10431;50.228;9.112;2023-04-06T15:11:11;18.60;56.60
20546;DHT22;10431;50.228;9.112;2023-04-06T15:13:39;18.70;56.40
20546;DHT22;10431;50.228;9.112;2023-04-06T15:16:06;18.70;56.70
20546;DHT22;10431;50.228;9.112;2023-04-06T15:18:33;18.70;57.30
20546;DHT22;10431;50.228;9.112;2023-04-06T15:21:00;18.70;57.40
20546;DHT22;10431;50.228;9.112;2023-04-06T15:23:27;18.80;58.00
20546;DHT22;10431;50.228;9.112;2023-04-06T15:25:57;18.70;58.60
20546;DHT22;10431;50.228;9.112;2023-04-06T15:28:23;18.60;59.50
20546;DHT22;10431;50.228;9.112;2023-04-06T15:30:50;18.70;59.80
20546;DHT22;10431;50.228;9.112;2023-04-06T15:33:17;18.90;59.20
20546;DHT22;10431;50.228;9.112;2023-04-06T15:35:46;18.90;59.20
20546;DHT22;10431;50.228;9.112;2023-04-06T15:38:12;19.00;59.40
20546;DHT22;10431;50.228;9.112;2023-04-06T15:40:46;19.00;59.80
20546;DHT22;10431;50.228;9.112;2023-04-06T15:43:13;19.10;60.30
20546;DHT22;10431;50.228;9.112;2023-04-06T15:45:40;19.00;60.90
20546;DHT22;10431;50.228;9.112;2023-04-06T15:48:07;19.10;60.90
20546;DHT22;10431;50.228;9.112;2023-04-06T15:50:34;19.10;60.80